createdAt,value
2023-02-11T00:01:55.643Z,39.55
2023-02-11T00:04:24.123Z,41.30
2023-02-11T00:06:52.644Z,38.85
2023-02-11T00:09:21.363Z,38.30
2023-02-11T00:11:49.975Z,38.70
2023-02-11T00:14:18.486Z,40.05
2023-02-11T00:16:48.403Z,40.55
2023-02-11T00:19:17.174Z,38.22
2023-02-11T00:21:45.746Z,41.67
2023-02-11T00:24:14.405Z,40.60
2023-02-11T00:26:43.067Z,38.20
2023-02-11T00:29:11.750Z,38.33
2023-02-11T00:31:42.450Z,38.38
2023-02-11T00:34:12.497Z,38.63
2023-02-11T00:36:41.739Z,40.80
2023-02-11T00:39:10.651Z,42.55
2023-02-11T00:41:39.232Z,36.70
2023-02-11T00:44:08.815Z,41.20
2023-02-11T00:46:37.518Z,39.53
2023-02-11T00:49:06.050Z,39.28
2023-02-11T00:51:36.085Z,39.13
2023-02-11T00:54:06.028Z,39.28
2023-02-11T00:56:35.838Z,41.20
2023-02-11T00:59:04.463Z,41.08
2023-02-11T01:01:33.246Z,38.55
2023-02-11T01:04:02.076Z,41.00
2023-02-11T01:06:30.672Z,38.92
2023-02-11T01:09:01.175Z,38.30
2023-02-11T01:11:29.716Z,41.80
2023-02-11T01:13:58.218Z,37.33
2023-02-11T01:16:26.957Z,42.15
2023-02-11T01:18:55.636Z,40.33
2023-02-11T01:21:24.170Z,42.20
2023-02-11T01:23:53.605Z,40.80
2023-02-11T01:26:23.523Z,39.72
2023-02-11T01:28:52.242Z,42.13
2023-02-11T01:31:21.406Z,42.15
2023-02-11T01:33:50.224Z,41.33
2023-02-11T01:36:18.741Z,38.10
2023-02-11T01:38:47.463Z,39.42
2023-02-11T01:41:16.235Z,39.20
2023-02-11T01:43:49.215Z,39.58
2023-02-11T01:46:35.388Z,40.58
2023-02-11T01:49:10.827Z,40.00
2023-02-11T01:51:44.956Z,39.40
2023-02-11T01:54:38.490Z,40.85
2023-02-11T01:57:25.010Z,38.17
2023-02-11T02:00:07.831Z,40.03
2023-02-11T02:02:54.259Z,37.63
2023-02-11T02:05:36.163Z,41.35
2023-02-11T02:08:15.120Z,41.58
2023-02-11T02:10:46.912Z,44.65
2023-02-11T02:13:18.303Z,41.40
2023-02-11T02:15:53.988Z,38.05
2023-02-11T02:18:41.408Z,41.42
2023-02-11T02:22:14.227Z,40.72
2023-02-11T02:25:26.234Z,39.85
2023-02-11T02:28:15.500Z,45.05
2023-02-11T02:31:24.329Z,39.78
2023-02-11T02:34:03.486Z,37.88
2023-02-11T02:36:41.845Z,41.28
2023-02-11T02:39:18.331Z,38.92
2023-02-11T02:41:50.175Z,42.15
2023-02-11T02:44:21.072Z,39.03
2023-02-11T02:46:50.099Z,38.08
2023-02-11T02:49:20.264Z,41.67
2023-02-11T02:52:20.268Z,40.53
2023-02-11T02:55:19.672Z,38.00
2023-02-11T02:58:15.486Z,37.70
2023-02-11T03:00:58.272Z,38.35
2023-02-11T03:03:38.942Z,36.53
2023-02-11T03:06:22.581Z,40.42
2023-02-11T03:09:00.432Z,38.45
2023-02-11T03:11:30.369Z,44.55
2023-02-11T03:14:04.469Z,40.03
2023-02-11T03:16:39.188Z,40.10
2023-02-11T03:19:15.078Z,40.38
2023-02-11T03:21:50.070Z,42.53
2023-02-11T03:24:25.518Z,40.75
2023-02-11T03:26:58.161Z,41.58
2023-02-11T03:29:38.545Z,38.65
2023-02-11T03:32:17.046Z,39.67
2023-02-11T03:34:54.014Z,39.10
2023-02-11T03:37:32.317Z,39.38
2023-02-11T03:40:05.962Z,40.33
2023-02-11T03:42:41.304Z,36.38
2023-02-11T03:45:15.385Z,38.13
2023-02-11T03:47:52.927Z,36.65
2023-02-11T03:50:24.250Z,40.08
2023-02-11T03:52:58.054Z,36.50
2023-02-11T03:55:29.293Z,37.38
2023-02-11T03:57:58.152Z,40.08
2023-02-11T04:00:32.293Z,39.38
2023-02-11T04:03:00.988Z,39.38
2023-02-11T04:05:29.560Z,40.83
2023-02-11T04:07:59.508Z,37.53
2023-02-11T04:10:28.111Z,40.08
2023-02-11T04:12:56.738Z,36.53
2023-02-11T04:15:25.918Z,39.90
2023-02-11T04:17:54.447Z,41.05
2023-02-11T04:20:22.950Z,40.97
2023-02-11T04:22:51.620Z,38.13
2023-02-11T04:25:21.800Z,37.80
2023-02-11T04:27:50.376Z,37.72
2023-02-11T04:30:19.485Z,37.22
2023-02-11T04:32:47.998Z,39.28
2023-02-11T04:35:16.578Z,34.75
2023-02-11T04:37:45.141Z,39.75
2023-02-11T04:40:14.180Z,36.70
2023-02-11T04:42:44.135Z,35.30
2023-02-11T04:45:12.672Z,37.90
2023-02-11T04:47:41.228Z,37.65
2023-02-11T04:50:10.251Z,39.70
2023-02-11T04:52:38.802Z,38.70
2023-02-11T04:55:08.358Z,40.10
2023-02-11T04:57:37.016Z,37.85
2023-02-11T05:00:09.973Z,37.80
2023-02-11T05:02:38.649Z,37.00
2023-02-11T05:05:07.652Z,37.10
2023-02-11T05:07:36.219Z,37.38
2023-02-11T05:10:05.368Z,35.03
2023-02-11T05:12:33.988Z,37.75
2023-02-11T05:15:02.605Z,35.15
2023-02-11T05:17:32.522Z,35.03
2023-02-11T05:20:01.057Z,32.78
2023-02-11T05:22:29.630Z,38.63
2023-02-11T05:24:58.267Z,35.10
2023-02-11T05:27:27.046Z,35.67
2023-02-11T05:29:55.623Z,36.50
2023-02-11T05:32:24.306Z,34.05
2023-02-11T05:34:54.185Z,35.58
2023-02-11T05:37:22.709Z,37.15
2023-02-11T05:39:51.421Z,35.10
2023-02-11T05:42:20.001Z,34.83
2023-02-11T05:44:50.532Z,36.92
2023-02-11T05:47:19.175Z,34.65
2023-02-11T05:49:47.896Z,35.33
2023-02-11T05:52:17.849Z,34.92
2023-02-11T05:54:46.333Z,36.80
2023-02-11T05:57:15.323Z,35.13
2023-02-11T05:59:44.146Z,35.90
2023-02-11T06:02:13.848Z,34.75
2023-02-11T06:04:42.541Z,35.47
2023-02-11T06:07:11.150Z,36.40
2023-02-11T06:09:41.228Z,35.22
2023-02-11T06:12:09.833Z,35.60
2023-02-11T06:14:38.462Z,32.17
2023-02-11T06:17:07.114Z,31.48
2023-02-11T06:19:35.808Z,34.67
2023-02-11T06:22:04.705Z,35.17
2023-02-11T06:24:58.489Z,33.92
2023-02-11T06:27:23.758Z,32.53
2023-02-11T06:29:52.896Z,34.88
2023-02-11T06:32:42.352Z,33.45
2023-02-11T06:35:12.067Z,32.15
2023-02-11T06:37:41.404Z,34.35
2023-02-11T06:40:10.573Z,32.55
2023-02-11T06:42:40.619Z,33.05
2023-02-11T06:45:11.079Z,31.75
2023-02-11T06:47:40.249Z,32.75
2023-02-11T06:50:13.418Z,35.20
2023-02-11T06:52:42.994Z,32.45
2023-02-11T06:55:11.662Z,33.65
2023-02-11T06:57:41.657Z,30.42
2023-02-11T07:00:12.302Z,32.78
2023-02-11T07:02:41.003Z,32.70
2023-02-11T07:05:10.429Z,33.78
2023-02-11T07:07:39.120Z,34.25
2023-02-11T07:10:08.659Z,31.80
2023-02-11T07:12:37.214Z,31.77
2023-02-11T07:15:08.113Z,31.77
2023-02-11T07:17:37.574Z,35.15
2023-02-11T07:20:07.266Z,30.40
2023-02-11T07:22:36.041Z,36.10
2023-02-11T07:25:05.109Z,32.65
2023-02-11T07:27:34.062Z,34.30
2023-02-11T07:30:03.785Z,32.00
2023-02-11T07:32:34.799Z,33.63
2023-02-11T07:35:03.918Z,32.22
2023-02-11T07:37:34.684Z,32.30
2023-02-11T07:40:03.612Z,31.98
2023-02-11T07:42:32.352Z,30.80
2023-02-11T07:45:01.073Z,33.97
2023-02-11T07:47:29.774Z,32.55
2023-02-11T07:49:59.817Z,34.17
2023-02-11T07:52:31.357Z,33.30
2023-02-11T07:54:59.971Z,30.10
2023-02-11T07:57:28.848Z,33.10
2023-02-11T07:59:57.445Z,32.50
2023-02-11T08:02:26.300Z,34.23
2023-02-11T08:04:55.140Z,30.83
2023-02-11T08:07:26.119Z,30.80
2023-02-11T08:09:55.585Z,31.17
2023-02-11T08:12:24.131Z,31.90
2023-02-11T08:14:52.780Z,32.37
2023-02-11T08:17:21.322Z,29.30
2023-02-11T08:19:49.995Z,34.70
2023-02-11T08:22:18.646Z,33.50
2023-02-11T08:24:51.321Z,29.23
2023-02-11T08:27:20.888Z,30.43
2023-02-11T08:29:49.564Z,30.10
2023-02-11T08:32:18.190Z,31.07
2023-02-11T08:34:46.931Z,29.47
2023-02-11T08:37:15.529Z,30.43
2023-02-11T08:39:44.501Z,28.47
2023-02-11T08:42:15.567Z,29.43
2023-02-11T08:44:44.911Z,28.53
2023-02-11T08:47:13.562Z,31.00
2023-02-11T08:49:42.495Z,26.87
2023-02-11T08:52:11.153Z,28.43
2023-02-11T08:54:39.775Z,27.80
2023-02-11T08:57:08.554Z,27.47
2023-02-11T08:59:40.039Z,27.00
2023-02-11T09:02:12.861Z,25.63
2023-02-11T09:04:42.364Z,28.33
2023-02-11T09:07:12.644Z,27.03
2023-02-11T09:09:41.282Z,25.97
2023-02-11T09:12:09.807Z,27.00
2023-02-11T09:14:39.936Z,26.33
2023-02-11T09:17:09.955Z,25.87
2023-02-11T09:19:38.650Z,28.37
2023-02-11T09:22:07.512Z,27.23
2023-02-11T09:24:36.221Z,27.70
2023-02-11T09:27:05.091Z,25.33
2023-02-11T09:29:33.681Z,27.20
2023-02-11T09:32:03.812Z,26.93
2023-02-11T09:34:32.479Z,24.77
2023-02-11T09:37:01.109Z,24.87
2023-02-11T09:39:30.101Z,26.97
2023-02-11T09:42:49.021Z,24.40
2023-02-11T09:45:23.339Z,24.70
2023-02-11T09:47:59.040Z,25.50
2023-02-11T09:50:33.988Z,27.30
2023-02-11T09:53:07.964Z,26.70
2023-02-11T09:55:42.601Z,26.90
2023-02-11T09:58:15.816Z,28.70
2023-02-11T10:00:52.445Z,26.30
2023-02-11T10:04:01.919Z,26.77
2023-02-11T10:06:46.405Z,25.37
2023-02-11T10:09:47.443Z,25.30
2023-02-11T10:12:39.997Z,25.13
2023-02-11T10:15:24.021Z,25.97
2023-02-11T10:18:23.317Z,26.33
2023-02-11T10:21:14.961Z,25.00
2023-02-11T10:23:52.737Z,23.90
2023-02-11T10:26:22.073Z,25.57
2023-02-11T10:28:56.075Z,26.10
2023-02-11T10:31:30.469Z,24.57
2023-02-11T10:34:04.145Z,25.20
2023-02-11T10:36:37.202Z,22.40
2023-02-11T10:39:14.678Z,24.70
2023-02-11T10:41:47.144Z,23.20
2023-02-11T10:44:28.620Z,24.37
2023-02-11T10:47:00.655Z,25.80
2023-02-11T10:49:40.350Z,24.70
2023-02-11T10:52:23.938Z,23.30
2023-02-11T10:55:07.382Z,24.10
2023-02-11T10:57:39.143Z,25.10
2023-02-11T11:00:29.700Z,28.90
2023-02-11T11:03:02.349Z,23.77
2023-02-11T11:05:36.506Z,25.37
2023-02-11T11:08:10.073Z,25.10
2023-02-11T11:10:44.176Z,25.63
2023-02-11T11:13:32.387Z,26.27
2023-02-11T11:16:24.002Z,24.40
2023-02-11T11:18:55.514Z,27.13
2023-02-11T11:21:27.646Z,26.90
2023-02-11T11:24:01.866Z,25.97
2023-02-11T11:26:42.618Z,25.73
2023-02-11T11:29:16.349Z,27.50
2023-02-11T11:31:56.949Z,26.50
2023-02-11T11:34:32.764Z,23.77
2023-02-11T11:37:11.369Z,24.03
2023-02-11T11:39:42.290Z,23.90
2023-02-11T11:42:27.962Z,25.53
2023-02-11T11:45:03.156Z,24.37
2023-02-11T11:47:41.953Z,26.30
2023-02-11T11:50:31.754Z,24.40
2023-02-11T11:53:06.126Z,26.07
2023-02-11T11:55:44.878Z,25.80
2023-02-11T11:58:19.196Z,26.83
2023-02-11T12:01:01.212Z,27.20
2023-02-11T12:04:07.755Z,26.70
2023-02-11T12:06:51.097Z,25.30
2023-02-11T12:09:34.002Z,25.43
2023-02-11T12:12:27.696Z,25.70
2023-02-11T12:15:14.815Z,24.60
2023-02-11T12:18:08.678Z,25.13
2023-02-11T12:21:03.450Z,25.77
2023-02-11T12:23:51.575Z,26.17
2023-02-11T12:26:24.576Z,24.93
2023-02-11T12:29:14.954Z,25.93
2023-02-11T12:32:03.006Z,25.20
2023-02-11T12:35:09.408Z,25.17
2023-02-11T12:37:59.587Z,27.30
2023-02-11T12:40:44.003Z,24.23
2023-02-11T12:43:21.947Z,25.60
2023-02-11T12:46:40.450Z,25.70
2023-02-11T12:49:46.677Z,23.67
2023-02-11T12:52:34.788Z,24.83
2023-02-11T12:55:17.434Z,28.57
2023-02-11T12:57:51.190Z,26.90
2023-02-11T13:00:25.705Z,24.87
2023-02-11T13:03:04.503Z,26.63
2023-02-11T13:05:40.197Z,24.93
2023-02-11T13:08:17.529Z,26.87
2023-02-11T13:10:54.830Z,25.77
2023-02-11T13:13:30.570Z,25.73
2023-02-11T13:16:07.675Z,25.00
2023-02-11T13:18:49.522Z,25.50
2023-02-11T13:21:52.637Z,25.63
2023-02-11T13:24:35.912Z,23.57
2023-02-11T13:27:20.128Z,24.67
2023-02-11T13:30:24.477Z,26.10
2023-02-11T13:33:22.648Z,25.33
2023-02-11T13:36:25.164Z,24.80
2023-02-11T13:38:59.791Z,24.67
2023-02-11T13:41:41.576Z,24.10
2023-02-11T13:44:28.380Z,24.07
2023-02-11T13:47:02.165Z,25.13
2023-02-11T13:49:40.883Z,24.90
2023-02-11T13:52:27.082Z,25.37
2023-02-11T13:55:03.243Z,24.50
2023-02-11T13:57:41.195Z,21.60
2023-02-11T14:00:50.372Z,23.40
2023-02-11T14:03:53.551Z,25.00
2023-02-11T14:06:46.821Z,23.80
2023-02-11T14:09:57.268Z,22.47
2023-02-11T14:12:36.725Z,24.57
2023-02-11T14:15:39.131Z,25.40
2023-02-11T14:18:38.568Z,23.57
2023-02-11T14:21:15.528Z,23.20
2023-02-11T14:23:45.153Z,24.93
2023-02-11T14:26:46.027Z,22.73
2023-02-11T14:29:22.673Z,23.50
2023-02-11T14:32:06.133Z,25.17
2023-02-11T14:34:52.577Z,25.90
2023-02-11T14:37:38.233Z,25.70
2023-02-11T14:40:25.610Z,24.53
2023-02-11T14:42:58.433Z,23.87
2023-02-11T14:45:31.097Z,22.50
2023-02-11T14:48:08.238Z,24.60
2023-02-11T14:50:47.219Z,25.87
2023-02-11T14:53:20.577Z,23.77
2023-02-11T14:55:52.364Z,24.27
2023-02-11T14:58:25.827Z,25.83
2023-02-11T15:00:59.110Z,24.47
2023-02-11T15:03:36.013Z,25.10
2023-02-11T15:06:14.130Z,23.40
2023-02-11T15:08:51.198Z,24.23
2023-02-11T15:11:23.496Z,24.10
2023-02-11T15:13:55.549Z,25.60
2023-02-11T15:16:27.307Z,25.73
2023-02-11T15:19:02.143Z,24.73
2023-02-11T15:21:34.488Z,25.50
2023-02-11T15:24:07.068Z,25.53
2023-02-11T15:26:36.016Z,25.53
2023-02-11T15:29:17.207Z,26.80
2023-02-11T15:31:45.913Z,26.90
2023-02-11T15:34:14.668Z,24.57
2023-02-11T15:36:43.858Z,26.37
2023-02-11T15:39:31.589Z,25.30
2023-02-11T15:42:23.668Z,25.03
2023-02-11T15:45:23.872Z,26.17
2023-02-11T15:47:55.451Z,26.20
2023-02-11T15:50:27.195Z,25.10
2023-02-11T15:52:58.614Z,26.63
2023-02-11T15:55:30.260Z,28.20
2023-02-11T15:58:02.739Z,27.37
2023-02-11T16:00:38.886Z,26.50
2023-02-11T16:03:07.728Z,27.23
2023-02-11T16:05:40.603Z,27.73
2023-02-11T16:08:24.548Z,26.10
2023-02-11T16:11:02.469Z,26.70
2023-02-11T16:13:33.791Z,27.73
2023-02-11T16:16:06.991Z,24.53
2023-02-11T16:18:40.180Z,24.07
2023-02-11T16:21:17.744Z,26.13
2023-02-11T16:23:54.323Z,23.43
2023-02-11T16:26:30.108Z,28.87
2023-02-11T16:29:14.025Z,25.40
2023-02-11T16:31:48.680Z,24.43
2023-02-11T16:34:19.894Z,24.87
2023-02-11T16:36:49.594Z,26.97
2023-02-11T16:39:21.633Z,27.10
2023-02-11T16:41:52.022Z,25.07
2023-02-11T16:44:20.543Z,28.00
2023-02-11T16:46:50.957Z,27.27
2023-02-11T16:49:24.523Z,27.27
2023-02-11T16:51:56.895Z,28.63
2023-02-11T16:54:25.566Z,27.07
2023-02-11T16:56:55.934Z,27.43
2023-02-11T16:59:24.972Z,28.20
2023-02-11T17:01:56.001Z,28.07
2023-02-11T17:04:31.210Z,24.80
2023-02-11T17:06:59.997Z,26.17
2023-02-11T17:09:31.117Z,25.87
2023-02-11T17:12:00.269Z,27.70
2023-02-11T17:14:29.203Z,26.70
2023-02-11T17:16:59.567Z,28.43
2023-02-11T17:19:28.263Z,30.47
2023-02-11T17:21:56.868Z,31.87
2023-02-11T17:24:25.518Z,29.00
2023-02-11T17:26:54.829Z,27.93
2023-02-11T17:29:26.159Z,30.07
2023-02-11T17:31:55.277Z,31.23
2023-02-11T17:34:39.163Z,31.63
2023-02-11T17:37:09.317Z,28.80
2023-02-11T17:39:39.383Z,29.70
2023-02-11T17:42:08.955Z,28.23
2023-02-11T17:44:37.504Z,27.30
2023-02-11T17:47:06.212Z,28.27
2023-02-11T17:49:37.370Z,28.07
2023-02-11T17:52:06.178Z,26.53
2023-02-11T17:54:34.953Z,26.37
2023-02-11T17:57:03.692Z,26.50
2023-02-11T17:59:35.468Z,32.50
2023-02-11T18:02:05.043Z,30.60
2023-02-11T18:04:35.200Z,30.37
2023-02-11T18:07:03.906Z,28.97
2023-02-11T18:09:32.554Z,29.03
2023-02-11T18:12:01.076Z,28.80
2023-02-11T18:14:29.837Z,26.63
2023-02-11T18:16:58.471Z,28.10
2023-02-11T18:19:30.485Z,26.53
2023-02-11T18:22:01.246Z,28.30
2023-02-11T18:24:29.894Z,27.73
2023-02-11T18:26:58.478Z,28.00
2023-02-11T18:29:27.199Z,27.53
2023-02-11T18:31:59.187Z,31.17
2023-02-11T18:34:28.042Z,29.10
2023-02-11T18:36:59.791Z,27.30
2023-02-11T18:39:30.018Z,27.07
2023-02-11T18:41:59.623Z,25.73
2023-02-11T18:44:28.538Z,27.87
2023-02-11T18:46:57.130Z,29.40
2023-02-11T18:49:25.676Z,29.07
2023-02-11T18:51:54.857Z,29.87
2023-02-11T18:54:23.369Z,30.50
2023-02-11T18:56:53.270Z,32.70
2023-02-11T18:59:21.784Z,31.60
2023-02-11T19:01:51.098Z,31.07
2023-02-11T19:04:20.209Z,29.13
2023-02-11T19:06:50.342Z,30.20
2023-02-11T19:09:21.390Z,30.83
2023-02-11T19:11:50.461Z,29.40
2023-02-11T19:14:24.593Z,32.80
2023-02-11T19:16:55.889Z,29.10
2023-02-11T19:19:28.180Z,30.10
2023-02-11T19:21:57.965Z,29.93
2023-02-11T19:24:27.706Z,29.30
2023-02-11T19:27:00.107Z,30.60
2023-02-11T19:29:32.095Z,28.20
2023-02-11T19:32:00.927Z,27.57
2023-02-11T19:34:29.780Z,28.67
2023-02-11T19:36:59.755Z,29.73
2023-02-11T19:39:28.456Z,28.20
2023-02-11T19:41:57.036Z,29.40
2023-02-11T19:44:25.647Z,28.63
2023-02-11T19:46:55.628Z,28.20
2023-02-11T19:49:25.989Z,29.33
2023-02-11T19:51:58.134Z,30.67
2023-02-11T19:54:29.082Z,28.87
2023-02-11T19:56:58.614Z,28.03
2023-02-11T19:59:27.157Z,28.63
2023-02-11T20:01:57.650Z,28.97
2023-02-11T20:04:26.436Z,27.77
2023-02-11T20:06:54.974Z,29.07
2023-02-11T20:09:23.542Z,29.20
2023-02-11T20:11:52.127Z,29.63
2023-02-11T20:14:21.108Z,31.83
2023-02-11T20:16:50.209Z,31.90
2023-02-11T20:19:22.811Z,29.93
2023-02-11T20:21:55.668Z,29.50
2023-02-11T20:24:26.502Z,29.00
2023-02-11T20:26:56.511Z,31.00
2023-02-11T20:29:26.544Z,28.77
2023-02-11T20:31:55.816Z,31.60
2023-02-11T20:34:25.966Z,29.37
2023-02-11T20:36:54.913Z,28.33
2023-02-11T20:39:25.187Z,28.60
2023-02-11T20:41:54.826Z,30.10
2023-02-11T20:44:24.632Z,30.30
2023-02-11T20:46:56.033Z,28.77
2023-02-11T20:49:28.318Z,33.60
2023-02-11T20:51:58.459Z,30.80
2023-02-11T20:54:27.356Z,29.40
2023-02-11T20:56:57.036Z,30.90
2023-02-11T20:59:26.972Z,31.13
2023-02-11T21:01:57.825Z,30.23
2023-02-11T21:04:30.396Z,28.80
2023-02-11T21:07:02.200Z,29.37
2023-02-11T21:09:33.683Z,29.83
2023-02-11T21:12:03.858Z,28.60
2023-02-11T21:14:32.586Z,31.50
2023-02-11T21:17:01.146Z,29.97
2023-02-11T21:19:31.102Z,31.10
2023-02-11T21:22:00.925Z,29.60
2023-02-11T21:24:30.842Z,29.50
2023-02-11T21:26:59.801Z,31.67
2023-02-11T21:29:28.269Z,28.80
2023-02-11T21:31:56.990Z,30.00
2023-02-11T21:34:26.036Z,28.53
2023-02-11T21:36:55.953Z,30.13
2023-02-11T21:39:24.540Z,30.43
2023-02-11T21:41:53.386Z,29.03
2023-02-11T21:44:21.922Z,29.50
2023-02-11T21:46:50.587Z,28.13
2023-02-11T21:49:21.315Z,31.23
2023-02-11T21:51:50.055Z,31.17
2023-02-11T21:54:20.148Z,31.07
2023-02-11T21:56:51.796Z,28.90
2023-02-11T21:59:20.364Z,30.57
2023-02-11T22:01:48.926Z,29.27
2023-02-11T22:04:18.173Z,28.77
2023-02-11T22:06:46.793Z,30.70
2023-02-11T22:09:15.442Z,29.03
2023-02-11T22:11:45.471Z,29.13
2023-02-11T22:14:14.168Z,32.90
2023-02-11T22:16:45.881Z,32.60
2023-02-11T22:19:14.816Z,33.03
2023-02-11T22:21:44.254Z,32.40
2023-02-11T22:24:13.069Z,34.20
2023-02-11T22:26:41.705Z,33.63
2023-02-11T22:29:12.344Z,31.10
2023-02-11T22:31:41.098Z,33.97
2023-02-11T22:34:09.964Z,33.17
2023-02-11T22:36:41.195Z,33.73
2023-02-11T22:39:14.120Z,33.70
2023-02-11T22:41:44.563Z,34.00
2023-02-11T22:44:16.344Z,33.17
2023-02-11T22:46:45.479Z,32.77
2023-02-11T22:49:17.444Z,33.10
2023-02-11T22:51:46.902Z,32.43
2023-02-11T22:54:17.731Z,32.63
2023-02-11T22:56:50.961Z,32.73
2023-02-11T22:59:21.868Z,35.80
2023-02-11T23:01:50.890Z,31.77
2023-02-11T23:04:20.865Z,33.87
2023-02-11T23:06:49.985Z,32.87
2023-02-11T23:09:18.540Z,31.60
2023-02-11T23:11:48.565Z,33.20
2023-02-11T23:14:17.179Z,34.87
2023-02-11T23:16:47.132Z,35.10
2023-02-11T23:19:17.052Z,35.60
2023-02-11T23:21:45.756Z,31.70
2023-02-11T23:24:16.165Z,32.67
2023-02-11T23:26:45.362Z,29.50
2023-02-11T23:29:14.443Z,26.50
2023-02-11T23:31:46.577Z,29.10
2023-02-11T23:34:20.351Z,27.90
2023-02-11T23:36:48.879Z,32.33
2023-02-11T23:39:17.930Z,28.50
2023-02-11T23:41:47.235Z,29.97
2023-02-11T23:44:15.771Z,26.90
2023-02-11T23:46:44.416Z,29.17
2023-02-11T23:49:15.598Z,31.30
2023-02-11T23:51:44.231Z,31.40
2023-02-11T23:54:15.879Z,31.80
2023-02-11T23:56:44.548Z,32.43
2023-02-11T23:59:13.326Z,31.73
